sensor_id;sensor_type;location;lat;lon;timestamp;pressure;altitude;pressure_sealevel;temperature;humidity
34034;BME280;63481;52.588;22.472;2023-05-14T00:00:02;100912.90;;;8.09;81.03
34034;BME280;63481;52.588;22.472;2023-05-14T00:00:54;100913.79;;;7.97;81.75
34034;BME280;63481;52.588;22.472;2023-05-14T00:01:33;100912.00;;;7.97;81.85
34034;BME280;63481;52.588;22.472;2023-05-14T00:02:06;100914.58;;;7.92;81.95
34034;BME280;63481;52.588;22.472;2023-05-14T00:02:38;100914.23;;;7.87;81.98
34034;BME280;63481;52.588;22.472;2023-05-14T00:03:10;100912.73;;;7.85;82.37
34034;BME280;63481;52.588;22.472;2023-05-14T00:03:42;100910.34;;;7.80;82.60
34034;BME280;63481;52.588;22.472;2023-05-14T00:04:14;100912.24;;;7.79;82.60
34034;BME280;63481;52.588;22.472;2023-05-14T00:04:46;100913.31;;;7.76;82.65
34034;BME280;63481;52.588;22.472;2023-05-14T00:05:17;100913.52;;;7.73;83.11
34034;BME280;63481;52.588;22.472;2023-05-14T00:05:49;100914.52;;;7.67;83.09
34034;BME280;63481;52.588;22.472;2023-05-14T00:06:21;100914.94;;;7.60;83.55
34034;BME280;63481;52.588;22.472;2023-05-14T00:06:53;100909.14;;;7.58;83.45
34034;BME280;63481;52.588;22.472;2023-05-14T00:07:25;100910.59;;;7.56;83.52
34034;BME280;63481;52.588;22.472;2023-05-14T00:08:01;100910.23;;;7.60;83.71
34034;BME280;63481;52.588;22.472;2023-05-14T00:08:33;100907.42;;;7.62;83.65
34034;BME280;63481;52.588;22.472;2023-05-14T00:09:05;100903.77;;;7.60;83.51
34034;BME280;63481;52.588;22.472;2023-05-14T00:09:37;100907.07;;;7.61;83.42
34034;BME280;63481;52.588;22.472;2023-05-14T00:10:09;100905.14;;;7.62;83.27
34034;BME280;63481;52.588;22.472;2023-05-14T00:10:41;100905.65;;;7.64;83.36
34034;BME280;63481;52.588;22.472;2023-05-14T00:11:13;100902.98;;;7.59;83.67
34034;BME280;63481;52.588;22.472;2023-05-14T00:11:45;100905.88;;;7.59;83.45
34034;BME280;63481;52.588;22.472;2023-05-14T00:12:17;100909.63;;;7.60;83.54
34034;BME280;63481;52.588;22.472;2023-05-14T00:12:50;100912.35;;;7.55;83.52
34034;BME280;63481;52.588;22.472;2023-05-14T00:13:22;100911.96;;;7.54;83.93
34034;BME280;63481;52.588;22.472;2023-05-14T00:13:54;100907.64;;;7.64;83.64
34034;BME280;63481;52.588;22.472;2023-05-14T00:14:26;100911.39;;;7.66;83.53
34034;BME280;63481;52.588;22.472;2023-05-14T00:14:58;100909.19;;;7.61;83.82
34034;BME280;63481;52.588;22.472;2023-05-14T00:15:29;100911.44;;;7.63;83.92
34034;BME280;63481;52.588;22.472;2023-05-14T00:16:01;100912.89;;;7.63;83.77
34034;BME280;63481;52.588;22.472;2023-05-14T00:16:33;100912.58;;;7.59;83.63
34034;BME280;63481;52.588;22.472;2023-05-14T00:17:05;100913.39;;;7.54;83.58
34034;BME280;63481;52.588;22.472;2023-05-14T00:17:37;100913.61;;;7.49;83.81
34034;BME280;63481;52.588;22.472;2023-05-14T00:18:09;100913.65;;;7.47;83.94
34034;BME280;63481;52.588;22.472;2023-05-14T00:18:42;100916.46;;;7.45;84.06
34034;BME280;63481;52.588;22.472;2023-05-14T00:19:14;100919.71;;;7.43;83.94
34034;BME280;63481;52.588;22.472;2023-05-14T00:19:46;100919.71;;;7.45;84.74
34034;BME280;63481;52.588;22.472;2023-05-14T00:20:18;100923.92;;;7.48;84.48
34034;BME280;63481;52.588;22.472;2023-05-14T00:20:50;100923.29;;;7.47;84.32
34034;BME280;63481;52.588;22.472;2023-05-14T00:21:25;100924.31;;;7.54;83.94
34034;BME280;63481;52.588;22.472;2023-05-14T00:21:57;100926.54;;;7.59;83.62
34034;BME280;63481;52.588;22.472;2023-05-14T00:22:28;100923.77;;;7.51;83.69
34034;BME280;63481;52.588;22.472;2023-05-14T00:23:00;100922.91;;;7.45;83.99
34034;BME280;63481;52.588;22.472;2023-05-14T00:23:32;100922.21;;;7.37;84.73
34034;BME280;63481;52.588;22.472;2023-05-14T00:24:04;100920.86;;;7.38;84.84
34034;BME280;63481;52.588;22.472;2023-05-14T00:24:36;100916.77;;;7.42;85.15
34034;BME280;63481;52.588;22.472;2023-05-14T00:25:08;100918.16;;;7.46;85.00
34034;BME280;63481;52.588;22.472;2023-05-14T00:25:40;100919.46;;;7.56;85.27
34034;BME280;63481;52.588;22.472;2023-05-14T00:26:12;100916.96;;;7.60;84.69
34034;BME280;63481;52.588;22.472;2023-05-14T00:26:45;100917.33;;;7.58;85.01
34034;BME280;63481;52.588;22.472;2023-05-14T00:27:17;100918.34;;;7.52;84.83
34034;BME280;63481;52.588;22.472;2023-05-14T00:27:49;100919.25;;;7.47;85.17
34034;BME280;63481;52.588;22.472;2023-05-14T00:28:21;100915.13;;;7.46;85.40
34034;BME280;63481;52.588;22.472;2023-05-14T00:28:53;100914.70;;;7.48;85.29
34034;BME280;63481;52.588;22.472;2023-05-14T00:29:25;100914.38;;;7.46;85.07
34034;BME280;63481;52.588;22.472;2023-05-14T00:29:57;100914.19;;;7.51;84.94
34034;BME280;63481;52.588;22.472;2023-05-14T00:30:29;100915.55;;;7.53;84.55
34034;BME280;63481;52.588;22.472;2023-05-14T00:31:01;100913.65;;;7.53;84.30
34034;BME280;63481;52.588;22.472;2023-05-14T00:31:33;100914.25;;;7.55;84.47
34034;BME280;63481;52.588;22.472;2023-05-14T00:32:05;100915.64;;;7.54;84.26
34034;BME280;63481;52.588;22.472;2023-05-14T00:32:37;100915.23;;;7.53;84.29
34034;BME280;63481;52.588;22.472;2023-05-14T00:33:09;100915.12;;;7.51;84.20
34034;BME280;63481;52.588;22.472;2023-05-14T00:33:41;100912.20;;;7.50;84.18
34034;BME280;63481;52.588;22.472;2023-05-14T00:34:13;100914.30;;;7.49;84.21
34034;BME280;63481;52.588;22.472;2023-05-14T00:34:45;100911.77;;;7.49;84.51
34034;BME280;63481;52.588;22.472;2023-05-14T00:35:17;100913.33;;;7.43;84.48
34034;BME280;63481;52.588;22.472;2023-05-14T00:35:48;100909.42;;;7.36;84.71
34034;BME280;63481;52.588;22.472;2023-05-14T00:36:20;100910.80;;;7.29;85.02
34034;BME280;63481;52.588;22.472;2023-05-14T00:36:52;100912.98;;;7.24;85.35
34034;BME280;63481;52.588;22.472;2023-05-14T00:37:24;100915.29;;;7.17;85.45
34034;BME280;63481;52.588;22.472;2023-05-14T00:37:56;100917.56;;;7.21;85.35
34034;BME280;63481;52.588;22.472;2023-05-14T00:38:28;100915.71;;;7.24;85.04
34034;BME280;63481;52.588;22.472;2023-05-14T00:39:00;100914.21;;;7.26;85.10
34034;BME280;63481;52.588;22.472;2023-05-14T00:39:32;100913.79;;;7.23;85.18
34034;BME280;63481;52.588;22.472;2023-05-14T00:40:05;100912.41;;;7.29;85.13
34034;BME280;63481;52.588;22.472;2023-05-14T00:40:39;100910.94;;;7.36;84.90
34034;BME280;63481;52.588;22.472;2023-05-14T00:41:14;100913.73;;;7.38;84.50
34034;BME280;63481;52.588;22.472;2023-05-14T00:41:46;100915.35;;;7.36;84.58
34034;BME280;63481;52.588;22.472;2023-05-14T00:42:18;100910.73;;;7.38;84.44
34034;BME280;63481;52.588;22.472;2023-05-14T00:42:50;100912.09;;;7.40;84.56
34034;BME280;63481;52.588;22.472;2023-05-14T00:43:22;100912.33;;;7.41;84.51
34034;BME280;63481;52.588;22.472;2023-05-14T00:43:54;100912.23;;;7.42;84.41
34034;BME280;63481;52.588;22.472;2023-05-14T00:44:26;100916.05;;;7.38;84.55
34034;BME280;63481;52.588;22.472;2023-05-14T00:44:57;100914.39;;;7.34;84.48
34034;BME280;63481;52.588;22.472;2023-05-14T00:45:29;100916.89;;;7.30;84.98
34034;BME280;63481;52.588;22.472;2023-05-14T00:46:01;100916.12;;;7.33;84.91
34034;BME280;63481;52.588;22.472;2023-05-14T00:46:33;100919.25;;;7.35;84.98
34034;BME280;63481;52.588;22.472;2023-05-14T00:47:06;100919.08;;;7.35;84.90
34034;BME280;63481;52.588;22.472;2023-05-14T00:47:38;100915.36;;;7.36;84.92
34034;BME280;63481;52.588;22.472;2023-05-14T00:48:11;100914.52;;;7.44;84.57
34034;BME280;63481;52.588;22.472;2023-05-14T00:48:43;100916.48;;;7.50;84.79
34034;BME280;63481;52.588;22.472;2023-05-14T00:49:16;100912.70;;;7.49;84.32
34034;BME280;63481;52.588;22.472;2023-05-14T00:49:48;100912.68;;;7.48;84.56
34034;BME280;63481;52.588;22.472;2023-05-14T00:50:20;100912.35;;;7.44;84.55
34034;BME280;63481;52.588;22.472;2023-05-14T00:50:53;100915.84;;;7.43;84.79
34034;BME280;63481;52.588;22.472;2023-05-14T00:51:25;100912.45;;;7.45;84.69
34034;BME280;63481;52.588;22.472;2023-05-14T00:51:57;100912.13;;;7.43;84.68
34034;BME280;63481;52.588;22.472;2023-05-14T00:52:31;100915.28;;;7.40;84.91
34034;BME280;63481;52.588;22.472;2023-05-14T00:53:03;100912.48;;;7.37;84.80
34034;BME280;63481;52.588;22.472;2023-05-14T00:53:40;100915.08;;;7.34;84.71
34034;BME280;63481;52.588;22.472;2023-05-14T00:54:15;100913.61;;;7.33;84.93
34034;BME280;63481;52.588;22.472;2023-05-14T00:54:47;100914.16;;;7.36;85.08
34034;BME280;63481;52.588;22.472;2023-05-14T00:55:20;100916.06;;;7.33;84.97
34034;BME280;63481;52.588;22.472;2023-05-14T00:55:53;100912.87;;;7.31;85.04
34034;BME280;63481;52.588;22.472;2023-05-14T00:56:25;100912.67;;;7.35;85.18
34034;BME280;63481;52.588;22.472;2023-05-14T00:56:58;100915.02;;;7.44;84.75
34034;BME280;63481;52.588;22.472;2023-05-14T00:57:30;100916.90;;;7.54;84.30
34034;BME280;63481;52.588;22.472;2023-05-14T00:58:06;100916.71;;;7.63;83.83
34034;BME280;63481;52.588;22.472;2023-05-14T00:58:40;100912.45;;;7.67;83.66
34034;BME280;63481;52.588;22.472;2023-05-14T00:59:12;100914.85;;;7.64;83.62
34034;BME280;63481;52.588;22.472;2023-05-14T00:59:44;100913.29;;;7.55;83.51
34034;BME280;63481;52.588;22.472;2023-05-14T01:00:16;100913.61;;;7.46;83.61
34034;BME280;63481;52.588;22.472;2023-05-14T01:00:48;100913.05;;;7.39;84.14
34034;BME280;63481;52.588;22.472;2023-05-14T01:01:20;100915.40;;;7.31;84.27
34034;BME280;63481;52.588;22.472;2023-05-14T01:01:53;100919.52;;;7.26;84.46
34034;BME280;63481;52.588;22.472;2023-05-14T01:02:24;100918.36;;;7.22;84.79
34034;BME280;63481;52.588;22.472;2023-05-14T01:02:56;100916.88;;;7.19;85.08
34034;BME280;63481;52.588;22.472;2023-05-14T01:03:32;100918.48;;;7.26;85.15
34034;BME280;63481;52.588;22.472;2023-05-14T01:04:05;100916.42;;;7.33;84.99
34034;BME280;63481;52.588;22.472;2023-05-14T01:04:38;100917.70;;;7.40;84.86
34034;BME280;63481;52.588;22.472;2023-05-14T01:05:10;100916.48;;;7.42;84.65
34034;BME280;63481;52.588;22.472;2023-05-14T01:08:55;100920.83;;;7.36;84.61
34034;BME280;63481;52.588;22.472;2023-05-14T01:10:16;100919.01;;;7.35;84.13
34034;BME280;63481;52.588;22.472;2023-05-14T01:11:02;100918.07;;;7.39;84.24
34034;BME280;63481;52.588;22.472;2023-05-14T01:11:42;100918.67;;;7.37;84.04
34034;BME280;63481;52.588;22.472;2023-05-14T01:12:46;100920.20;;;7.29;84.01
34034;BME280;63481;52.588;22.472;2023-05-14T01:13:28;100923.00;;;7.28;84.17
34034;BME280;63481;52.588;22.472;2023-05-14T01:15:04;100924.63;;;7.28;84.22
34034;BME280;63481;52.588;22.472;2023-05-14T01:15:30;100937.73;;;7.09;84.41
34034;BME280;63481;52.588;22.472;2023-05-14T01:16:05;100937.22;;;7.00;85.19
34034;BME280;63481;52.588;22.472;2023-05-14T01:16:40;100938.98;;;7.00;85.39
34034;BME280;63481;52.588;22.472;2023-05-14T01:17:14;100939.52;;;7.05;85.98
34034;BME280;63481;52.588;22.472;2023-05-14T01:17:56;100934.79;;;7.04;85.72
34034;BME280;63481;52.588;22.472;2023-05-14T01:18:31;100935.36;;;7.01;85.71
34034;BME280;63481;52.588;22.472;2023-05-14T01:19:04;100936.33;;;7.00;85.83
34034;BME280;63481;52.588;22.472;2023-05-14T01:19:40;100936.71;;;7.00;85.84
34034;BME280;63481;52.588;22.472;2023-05-14T01:20:13;100936.09;;;6.99;86.04
34034;BME280;63481;52.588;22.472;2023-05-14T01:20:45;100935.48;;;6.99;86.15
34034;BME280;63481;52.588;22.472;2023-05-14T01:21:38;100928.44;;;6.96;86.04
34034;BME280;63481;52.588;22.472;2023-05-14T01:22:11;100932.45;;;6.90;86.37
34034;BME280;63481;52.588;22.472;2023-05-14T01:22:43;100931.29;;;6.88;86.40
34034;BME280;63481;52.588;22.472;2023-05-14T01:23:15;100930.67;;;6.88;86.44
34034;BME280;63481;52.588;22.472;2023-05-14T01:23:47;100933.73;;;6.90;86.85
34034;BME280;63481;52.588;22.472;2023-05-14T01:24:19;100929.95;;;6.92;87.22
34034;BME280;63481;52.588;22.472;2023-05-14T01:24:51;100933.41;;;6.93;87.33
34034;BME280;63481;52.588;22.472;2023-05-14T01:25:23;100931.35;;;6.92;87.73
34034;BME280;63481;52.588;22.472;2023-05-14T01:25:55;100931.05;;;6.92;88.08
34034;BME280;63481;52.588;22.472;2023-05-14T01:26:27;100930.85;;;6.95;88.42
34034;BME280;63481;52.588;22.472;2023-05-14T01:28:19;100931.28;;;7.01;88.27
34034;BME280;63481;52.588;22.472;2023-05-14T01:28:52;100933.23;;;6.97;87.87
34034;BME280;63481;52.588;22.472;2023-05-14T01:29:27;100930.14;;;6.98;87.84
34034;BME280;63481;52.588;22.472;2023-05-14T01:30:32;100930.35;;;7.00;87.88
34034;BME280;63481;52.588;22.472;2023-05-14T01:31:15;100929.28;;;6.98;87.84
34034;BME280;63481;52.588;22.472;2023-05-14T01:31:52;100927.69;;;6.95;87.58
34034;BME280;63481;52.588;22.472;2023-05-14T01:32:27;100925.71;;;6.97;87.47
34034;BME280;63481;52.588;22.472;2023-05-14T01:33:02;100924.55;;;6.96;87.42
34034;BME280;63481;52.588;22.472;2023-05-14T01:33:39;100924.25;;;6.99;86.86
34034;BME280;63481;52.588;22.472;2023-05-14T01:34:13;100923.99;;;6.96;86.54
34034;BME280;63481;52.588;22.472;2023-05-14T01:34:47;100922.10;;;6.96;86.41
34034;BME280;63481;52.588;22.472;2023-05-14T01:35:24;100922.89;;;6.89;85.93
34034;BME280;63481;52.588;22.472;2023-05-14T01:35:56;100921.11;;;6.84;86.12
34034;BME280;63481;52.588;22.472;2023-05-14T01:36:29;100919.23;;;6.80;86.35
34034;BME280;63481;52.588;22.472;2023-05-14T01:37:03;100919.18;;;6.79;86.31
34034;BME280;63481;52.588;22.472;2023-05-14T01:37:37;100921.74;;;6.78;86.36
34034;BME280;63481;52.588;22.472;2023-05-14T01:38:13;100922.83;;;6.86;86.53
34034;BME280;63481;52.588;22.472;2023-05-14T01:38:46;100919.86;;;6.84;86.10
34034;BME280;63481;52.588;22.472;2023-05-14T01:39:20;100917.46;;;6.79;86.31
34034;BME280;63481;52.588;22.472;2023-05-14T01:39:54;100918.91;;;6.77;86.53
34034;BME280;63481;52.588;22.472;2023-05-14T01:40:28;100917.04;;;6.75;86.73
34034;BME280;63481;52.588;22.472;2023-05-14T01:41:01;100915.67;;;6.80;87.40
34034;BME280;63481;52.588;22.472;2023-05-14T01:41:35;100915.34;;;6.80;87.84
34034;BME280;63481;52.588;22.472;2023-05-14T01:42:08;100916.20;;;6.79;88.92
34034;BME280;63481;52.588;22.472;2023-05-14T01:42:40;100915.11;;;6.79;89.42
34034;BME280;63481;52.588;22.472;2023-05-14T01:43:14;100915.41;;;6.76;89.26
34034;BME280;63481;52.588;22.472;2023-05-14T01:43:46;100913.55;;;6.77;89.37
34034;BME280;63481;52.588;22.472;2023-05-14T01:44:18;100917.36;;;6.88;89.49
34034;BME280;63481;52.588;22.472;2023-05-14T01:44:51;100919.29;;;6.97;89.15
34034;BME280;63481;52.588;22.472;2023-05-14T01:45:23;100917.15;;;7.02;88.45
34034;BME280;63481;52.588;22.472;2023-05-14T01:45:55;100916.70;;;7.03;87.98
34034;BME280;63481;52.588;22.472;2023-05-14T01:46:31;100918.95;;;7.05;87.78
34034;BME280;63481;52.588;22.472;2023-05-14T01:47:04;100919.72;;;7.06;87.28
34034;BME280;63481;52.588;22.472;2023-05-14T01:47:36;100921.57;;;7.05;87.60
34034;BME280;63481;52.588;22.472;2023-05-14T01:48:08;100920.70;;;7.04;87.18
34034;BME280;63481;52.588;22.472;2023-05-14T01:48:40;100925.74;;;7.01;87.43
34034;BME280;63481;52.588;22.472;2023-05-14T01:49:12;100926.91;;;6.97;87.09
34034;BME280;63481;52.588;22.472;2023-05-14T01:49:44;100926.85;;;6.90;86.63
34034;BME280;63481;52.588;22.472;2023-05-14T01:50:16;100924.25;;;6.83;86.82
34034;BME280;63481;52.588;22.472;2023-05-14T01:50:48;100928.63;;;6.77;87.16
34034;BME280;63481;52.588;22.472;2023-05-14T01:51:20;100929.77;;;6.71;87.41
34034;BME280;63481;52.588;22.472;2023-05-14T01:51:52;100932.17;;;6.72;87.40
34034;BME280;63481;52.588;22.472;2023-05-14T01:52:24;100930.17;;;6.72;87.54
34034;BME280;63481;52.588;22.472;2023-05-14T01:52:56;100929.42;;;6.73;87.61
34034;BME280;63481;52.588;22.472;2023-05-14T01:53:28;100929.86;;;6.74;87.64
34034;BME280;63481;52.588;22.472;2023-05-14T01:54:00;100927.95;;;6.70;87.35
34034;BME280;63481;52.588;22.472;2023-05-14T01:54:32;100930.55;;;6.66;87.16
34034;BME280;63481;52.588;22.472;2023-05-14T01:55:04;100936.54;;;6.67;87.32
34034;BME280;63481;52.588;22.472;2023-05-14T01:55:36;100935.64;;;6.68;87.19
34034;BME280;63481;52.588;22.472;2023-05-14T01:56:08;100932.89;;;6.64;86.84
34034;BME280;63481;52.588;22.472;2023-05-14T01:56:40;100933.01;;;6.54;86.86
34034;BME280;63481;52.588;22.472;2023-05-14T01:57:12;100929.16;;;6.47;87.02
34034;BME280;63481;52.588;22.472;2023-05-14T01:57:44;100929.45;;;6.41;86.93
34034;BME280;63481;52.588;22.472;2023-05-14T01:58:16;100927.02;;;6.38;87.06
34034;BME280;63481;52.588;22.472;2023-05-14T01:58:48;100930.80;;;6.35;87.14
34034;BME280;63481;52.588;22.472;2023-05-14T01:59:20;100932.06;;;6.33;87.43
34034;BME280;63481;52.588;22.472;2023-05-14T01:59:52;100933.08;;;6.35;87.62
34034;BME280;63481;52.588;22.472;2023-05-14T02:00:24;100930.36;;;6.36;87.70
34034;BME280;63481;52.588;22.472;2023-05-14T02:00:56;100931.84;;;6.32;87.81
34034;BME280;63481;52.588;22.472;2023-05-14T02:01:28;100930.58;;;6.31;88.11
34034;BME280;63481;52.588;22.472;2023-05-14T02:02:00;100928.50;;;6.31;88.13
34034;BME280;63481;52.588;22.472;2023-05-14T02:02:32;100925.84;;;6.31;88.03
34034;BME280;63481;52.588;22.472;2023-05-14T02:03:04;100926.91;;;6.32;88.14
34034;BME280;63481;52.588;22.472;2023-05-14T02:03:36;100926.41;;;6.33;88.03
34034;BME280;63481;52.588;22.472;2023-05-14T02:04:08;100929.16;;;6.34;88.08
34034;BME280;63481;52.588;22.472;2023-05-14T02:04:40;100930.46;;;6.35;88.20
34034;BME280;63481;52.588;22.472;2023-05-14T02:05:12;100929.38;;;6.36;88.20
34034;BME280;63481;52.588;22.472;2023-05-14T02:05:44;100926.81;;;6.36;87.93
34034;BME280;63481;52.588;22.472;2023-05-14T02:06:16;100926.46;;;6.36;87.97
34034;BME280;63481;52.588;22.472;2023-05-14T02:06:47;100927.81;;;6.37;87.95
34034;BME280;63481;52.588;22.472;2023-05-14T02:07:19;100930.14;;;6.38;88.05
34034;BME280;63481;52.588;22.472;2023-05-14T02:07:51;100929.02;;;6.40;88.09
34034;BME280;63481;52.588;22.472;2023-05-14T02:08:23;100927.85;;;6.41;88.06
34034;BME280;63481;52.588;22.472;2023-05-14T02:08:55;100930.73;;;6.42;88.15
34034;BME280;63481;52.588;22.472;2023-05-14T02:09:27;100928.85;;;6.44;87.79
34034;BME280;63481;52.588;22.472;2023-05-14T02:09:59;100927.10;;;6.43;87.69
34034;BME280;63481;52.588;22.472;2023-05-14T02:10:31;100926.13;;;6.39;87.58
34034;BME280;63481;52.588;22.472;2023-05-14T02:11:03;100931.63;;;6.41;87.33
34034;BME280;63481;52.588;22.472;2023-05-14T02:11:35;100931.83;;;6.41;87.22
34034;BME280;63481;52.588;22.472;2023-05-14T02:12:07;100930.93;;;6.41;87.27
34034;BME280;63481;52.588;22.472;2023-05-14T02:12:39;100932.32;;;6.39;87.10
34034;BME280;63481;52.588;22.472;2023-05-14T02:13:11;100932.26;;;6.38;86.95
34034;BME280;63481;52.588;22.472;2023-05-14T02:13:43;100930.30;;;6.38;86.75
34034;BME280;63481;52.588;22.472;2023-05-14T02:14:15;100931.95;;;6.36;86.76
34034;BME280;63481;52.588;22.472;2023-05-14T02:14:47;100930.23;;;6.36;86.64
34034;BME280;63481;52.588;22.472;2023-05-14T02:15:19;100930.69;;;6.33;86.61
34034;BME280;63481;52.588;22.472;2023-05-14T02:15:51;100930.75;;;6.34;86.68
34034;BME280;63481;52.588;22.472;2023-05-14T02:16:23;100931.58;;;6.33;86.67
34034;BME280;63481;52.588;22.472;2023-05-14T02:16:56;100929.82;;;6.31;86.41
34034;BME280;63481;52.588;22.472;2023-05-14T02:17:28;100927.43;;;6.29;86.67
34034;BME280;63481;52.588;22.472;2023-05-14T02:18:00;100929.14;;;6.29;86.69
34034;BME280;63481;52.588;22.472;2023-05-14T02:18:32;100928.12;;;6.32;86.61
34034;BME280;63481;52.588;22.472;2023-05-14T02:19:04;100925.22;;;6.30;86.38
34034;BME280;63481;52.588;22.472;2023-05-14T02:19:36;100922.39;;;6.30;86.41
34034;BME280;63481;52.588;22.472;2023-05-14T02:20:09;100925.77;;;6.28;86.09
34034;BME280;63481;52.588;22.472;2023-05-14T02:20:41;100925.51;;;6.29;86.36
34034;BME280;63481;52.588;22.472;2023-05-14T02:21:13;100926.32;;;6.34;86.16
34034;BME280;63481;52.588;22.472;2023-05-14T02:21:45;100928.15;;;6.37;86.16
34034;BME280;63481;52.588;22.472;2023-05-14T02:22:17;100926.40;;;6.38;86.06
34034;BME280;63481;52.588;22.472;2023-05-14T02:22:49;100927.38;;;6.37;86.08
34034;BME280;63481;52.588;22.472;2023-05-14T02:23:21;100923.73;;;6.34;85.96
34034;BME280;63481;52.588;22.472;2023-05-14T02:23:54;100928.38;;;6.35;86.06
34034;BME280;63481;52.588;22.472;2023-05-14T02:24:27;100927.69;;;6.35;86.20
34034;BME280;63481;52.588;22.472;2023-05-14T02:24:58;100928.14;;;6.35;86.36
34034;BME280;63481;52.588;22.472;2023-05-14T02:25:31;100924.53;;;6.36;86.38
34034;BME280;63481;52.588;22.472;2023-05-14T02:26:03;100924.16;;;6.31;86.45
34034;BME280;63481;52.588;22.472;2023-05-14T02:26:35;100924.37;;;6.26;86.43
34034;BME280;63481;52.588;22.472;2023-05-14T02:27:07;100925.31;;;6.17;86.52
34034;BME280;63481;52.588;22.472;2023-05-14T02:27:39;100923.60;;;6.17;86.68
34034;BME280;63481;52.588;22.472;2023-05-14T02:28:10;100921.66;;;6.22;86.81
34034;BME280;63481;52.588;22.472;2023-05-14T02:28:43;100921.70;;;6.30;86.55
34034;BME280;63481;52.588;22.472;2023-05-14T02:29:17;100921.11;;;6.32;86.01
34034;BME280;63481;52.588;22.472;2023-05-14T02:29:49;100920.80;;;6.26;86.26
34034;BME280;63481;52.588;22.472;2023-05-14T02:30:21;100919.08;;;6.23;86.26
34034;BME280;63481;52.588;22.472;2023-05-14T02:30:59;100920.44;;;6.25;86.36
34034;BME280;63481;52.588;22.472;2023-05-14T02:31:32;100922.45;;;6.23;86.35
34034;BME280;63481;52.588;22.472;2023-05-14T02:32:04;100918.79;;;6.17;86.54
34034;BME280;63481;52.588;22.472;2023-05-14T02:32:36;100922.73;;;6.27;86.35
34034;BME280;63481;52.588;22.472;2023-05-14T02:33:08;100922.61;;;6.34;86.21
34034;BME280;63481;52.588;22.472;2023-05-14T02:33:40;100922.66;;;6.42;85.85
34034;BME280;63481;52.588;22.472;2023-05-14T02:34:11;100922.83;;;6.49;85.68
34034;BME280;63481;52.588;22.472;2023-05-14T02:34:43;100921.95;;;6.52;85.48
34034;BME280;63481;52.588;22.472;2023-05-14T02:35:15;100919.05;;;6.46;85.23
34034;BME280;63481;52.588;22.472;2023-05-14T02:35:47;100917.29;;;6.39;85.36
34034;BME280;63481;52.588;22.472;2023-05-14T02:36:19;100917.58;;;6.32;85.70
34034;BME280;63481;52.588;22.472;2023-05-14T02:36:51;100914.75;;;6.26;85.91
34034;BME280;63481;52.588;22.472;2023-05-14T02:37:23;100917.08;;;6.20;86.18
34034;BME280;63481;52.588;22.472;2023-05-14T02:37:55;100912.92;;;6.16;86.48
34034;BME280;63481;52.588;22.472;2023-05-14T02:38:26;100916.98;;;6.20;86.74
34034;BME280;63481;52.588;22.472;2023-05-14T02:39:00;100913.31;;;6.22;86.64
34034;BME280;63481;52.588;22.472;2023-05-14T02:39:32;100913.92;;;6.30;86.59
34034;BME280;63481;52.588;22.472;2023-05-14T02:40:05;100914.05;;;6.33;86.47
34034;BME280;63481;52.588;22.472;2023-05-14T02:40:37;100914.67;;;6.29;86.33
34034;BME280;63481;52.588;22.472;2023-05-14T02:41:09;100913.17;;;6.24;86.21
34034;BME280;63481;52.588;22.472;2023-05-14T02:41:41;100910.63;;;6.21;86.38
34034;BME280;63481;52.588;22.472;2023-05-14T02:42:12;100912.15;;;6.23;86.67
34034;BME280;63481;52.588;22.472;2023-05-14T02:42:44;100914.14;;;6.24;86.70
34034;BME280;63481;52.588;22.472;2023-05-14T02:43:16;100911.05;;;6.24;86.55
34034;BME280;63481;52.588;22.472;2023-05-14T02:43:48;100910.54;;;6.22;86.49
34034;BME280;63481;52.588;22.472;2023-05-14T02:44:20;100915.42;;;6.21;86.65
34034;BME280;63481;52.588;22.472;2023-05-14T02:44:52;100913.80;;;6.19;86.84
34034;BME280;63481;52.588;22.472;2023-05-14T02:45:24;100915.81;;;6.19;87.04
34034;BME280;63481;52.588;22.472;2023-05-14T02:45:56;100913.61;;;6.15;86.72
34034;BME280;63481;52.588;22.472;2023-05-14T02:46:29;100913.30;;;6.16;86.91
34034;BME280;63481;52.588;22.472;2023-05-14T02:47:01;100912.38;;;6.19;86.90
34034;BME280;63481;52.588;22.472;2023-05-14T02:47:33;100913.73;;;6.20;86.74
34034;BME280;63481;52.588;22.472;2023-05-14T02:48:05;100913.48;;;6.11;86.74
34034;BME280;63481;52.588;22.472;2023-05-14T02:48:37;100914.39;;;6.04;86.60
34034;BME280;63481;52.588;22.472;2023-05-14T02:49:09;100915.08;;;6.01;86.61
34034;BME280;63481;52.588;22.472;2023-05-14T02:49:41;100919.09;;;5.96;86.53
34034;BME280;63481;52.588;22.472;2023-05-14T02:50:12;100916.60;;;5.94;86.94
34034;BME280;63481;52.588;22.472;2023-05-14T02:50:44;100917.19;;;5.92;86.88
34034;BME280;63481;52.588;22.472;2023-05-14T02:51:19;100917.94;;;5.88;87.13
34034;BME280;63481;52.588;22.472;2023-05-14T02:51:51;100918.09;;;5.87;87.32
34034;BME280;63481;52.588;22.472;2023-05-14T02:52:24;100916.52;;;5.90;87.50
34034;BME280;63481;52.588;22.472;2023-05-14T02:52:56;100917.04;;;5.95;87.52
34034;BME280;63481;52.588;22.472;2023-05-14T02:53:28;100914.39;;;5.95;87.28
34034;BME280;63481;52.588;22.472;2023-05-14T02:54:00;100914.40;;;5.97;87.08
34034;BME280;63481;52.588;22.472;2023-05-14T02:54:32;100916.02;;;5.95;87.22
34034;BME280;63481;52.588;22.472;2023-05-14T02:55:05;100916.69;;;5.97;87.27
34034;BME280;63481;52.588;22.472;2023-05-14T02:55:37;100914.50;;;5.97;87.18
34034;BME280;63481;52.588;22.472;2023-05-14T02:56:09;100913.89;;;6.04;87.15
34034;BME280;63481;52.588;22.472;2023-05-14T02:56:41;100914.83;;;6.10;86.96
34034;BME280;63481;52.588;22.472;2023-05-14T02:57:13;100914.14;;;6.10;86.76
34034;BME280;63481;52.588;22.472;2023-05-14T02:57:44;100915.30;;;6.10;86.81
34034;BME280;63481;52.588;22.472;2023-05-14T02:58:17;100915.32;;;6.07;86.71